sensor_id;sensor_type;location;lat;lon;timestamp;pressure;altitude;pressure_sealevel;temperature;humidity
64521;BME280;50896;46.714;17.322;2022-07-29T00:02:06;100367.88;;;20.49;72.53
64521;BME280;50896;46.714;17.322;2022-07-29T00:04:45;100364.59;;;20.47;72.58
64521;BME280;50896;46.714;17.322;2022-07-29T00:07:13;100367.06;;;20.49;72.63
64521;BME280;50896;46.714;17.322;2022-07-29T00:09:53;100355.44;;;20.48;73.18
64521;BME280;50896;46.714;17.322;2022-07-29T00:12:24;100365.50;;;20.41;73.13
64521;BME280;50896;46.714;17.322;2022-07-29T00:14:54;100350.47;;;20.34;73.57
64521;BME280;50896;46.714;17.322;2022-07-29T00:17:25;100349.63;;;20.33;74.16
64521;BME280;50896;46.714;17.322;2022-07-29T00:19:58;100349.41;;;20.35;74.48
64521;BME280;50896;46.714;17.322;2022-07-29T00:22:30;100348.00;;;20.32;74.45
64521;BME280;50896;46.714;17.322;2022-07-29T00:24:59;100343.47;;;20.26;74.90
64521;BME280;50896;46.714;17.322;2022-07-29T00:27:27;100342.94;;;20.36;74.87
64521;BME280;50896;46.714;17.322;2022-07-29T00:29:54;100337.66;;;20.29;74.82
64521;BME280;50896;46.714;17.322;2022-07-29T00:32:22;100346.09;;;20.32;74.79
64521;BME280;50896;46.714;17.322;2022-07-29T00:34:59;100344.09;;;20.28;74.95
64521;BME280;50896;46.714;17.322;2022-07-29T00:37:50;100347.69;;;20.22;75.58
64521;BME280;50896;46.714;17.322;2022-07-29T00:40:18;100346.06;;;20.21;76.21
64521;BME280;50896;46.714;17.322;2022-07-29T00:42:51;100345.00;;;20.22;76.25
64521;BME280;50896;46.714;17.322;2022-07-29T00:45:19;100350.06;;;20.30;76.38
64521;BME280;50896;46.714;17.322;2022-07-29T00:47:48;100345.13;;;20.27;76.72
64521;BME280;50896;46.714;17.322;2022-07-29T00:50:23;100344.22;;;20.33;76.62
64521;BME280;50896;46.714;17.322;2022-07-29T00:52:51;100340.94;;;20.31;76.92
64521;BME280;50896;46.714;17.322;2022-07-29T00:55:25;100346.00;;;20.39;76.80
64521;BME280;50896;46.714;17.322;2022-07-29T00:57:55;100343.53;;;20.38;76.89
64521;BME280;50896;46.714;17.322;2022-07-29T01:00:26;100345.19;;;20.39;77.24
64521;BME280;50896;46.714;17.322;2022-07-29T01:02:53;100351.66;;;20.38;77.18
64521;BME280;50896;46.714;17.322;2022-07-29T01:05:24;100349.84;;;20.31;77.21
64521;BME280;50896;46.714;17.322;2022-07-29T01:08:15;100353.31;;;20.20;77.31
64521;BME280;50896;46.714;17.322;2022-07-29T01:10:43;100356.09;;;20.13;77.48
64521;BME280;50896;46.714;17.322;2022-07-29T01:13:14;100351.16;;;20.10;77.28
64521;BME280;50896;46.714;17.322;2022-07-29T01:15:58;100347.56;;;20.17;77.66
64521;BME280;50896;46.714;17.322;2022-07-29T01:18:34;100349.19;;;20.18;77.21
64521;BME280;50896;46.714;17.322;2022-07-29T01:26:45;100350.28;;;20.17;77.44
64521;BME280;50896;46.714;17.322;2022-07-29T01:31:56;100346.28;;;20.19;77.49
64521;BME280;50896;46.714;17.322;2022-07-29T01:34:41;100340.44;;;20.22;77.21
64521;BME280;50896;46.714;17.322;2022-07-29T01:37:20;100340.66;;;20.21;77.66
64521;BME280;50896;46.714;17.322;2022-07-29T01:39:58;100338.53;;;20.23;77.39
64521;BME280;50896;46.714;17.322;2022-07-29T01:42:40;100337.28;;;20.25;76.70
64521;BME280;50896;46.714;17.322;2022-07-29T01:45:15;100334.66;;;20.19;76.89
64521;BME280;50896;46.714;17.322;2022-07-29T01:50:35;100343.06;;;20.10;77.08
64521;BME280;50896;46.714;17.322;2022-07-29T01:53:07;100339.31;;;20.11;77.25
64521;BME280;50896;46.714;17.322;2022-07-29T01:55:39;100332.28;;;20.10;76.97
64521;BME280;50896;46.714;17.322;2022-07-29T01:58:08;100329.81;;;20.09;77.42
64521;BME280;50896;46.714;17.322;2022-07-29T02:00:37;100337.31;;;20.07;77.59
64521;BME280;50896;46.714;17.322;2022-07-29T02:03:11;100331.53;;;20.03;77.08
64521;BME280;50896;46.714;17.322;2022-07-29T02:05:42;100329.59;;;19.92;77.71
64521;BME280;50896;46.714;17.322;2022-07-29T02:08:12;100329.59;;;19.92;77.72
64521;BME280;50896;46.714;17.322;2022-07-29T02:10:47;100326.28;;;19.90;77.70
64521;BME280;50896;46.714;17.322;2022-07-29T02:13:18;100326.75;;;19.87;77.39
64521;BME280;50896;46.714;17.322;2022-07-29T02:15:50;100329.53;;;19.80;77.28
64521;BME280;50896;46.714;17.322;2022-07-29T02:18:27;100314.69;;;19.71;77.37
64521;BME280;50896;46.714;17.322;2022-07-29T02:20:56;100332.72;;;19.70;77.40
64521;BME280;50896;46.714;17.322;2022-07-29T02:23:26;100331.38;;;19.61;77.84
64521;BME280;50896;46.714;17.322;2022-07-29T02:25:56;100333.47;;;19.59;77.87
64521;BME280;50896;46.714;17.322;2022-07-29T02:28:29;100328.06;;;19.59;78.60
64521;BME280;50896;46.714;17.322;2022-07-29T02:31:01;100325.66;;;19.51;78.46
64521;BME280;50896;46.714;17.322;2022-07-29T02:33:30;100325.13;;;19.42;78.67
64521;BME280;50896;46.714;17.322;2022-07-29T02:36:01;100319.22;;;19.33;78.38
64521;BME280;50896;46.714;17.322;2022-07-29T02:38:31;100320.44;;;19.37;78.98
64521;BME280;50896;46.714;17.322;2022-07-29T02:41:22;100314.19;;;19.37;79.11
64521;BME280;50896;46.714;17.322;2022-07-29T02:44:05;100319.50;;;19.25;78.88
64521;BME280;50896;46.714;17.322;2022-07-29T02:46:41;100316.06;;;19.18;79.60
64521;BME280;50896;46.714;17.322;2022-07-29T02:51:54;100315.38;;;19.22;79.90
64521;BME280;50896;46.714;17.322;2022-07-29T02:54:55;100316.22;;;19.23;79.20
64521;BME280;50896;46.714;17.322;2022-07-29T02:57:32;100314.84;;;19.13;79.22
64521;BME280;50896;46.714;17.322;2022-07-29T03:00:23;100306.16;;;19.11;79.55
64521;BME280;50896;46.714;17.322;2022-07-29T03:02:55;100308.03;;;19.11;80.01
64521;BME280;50896;46.714;17.322;2022-07-29T03:05:25;100310.94;;;19.09;80.15
64521;BME280;50896;46.714;17.322;2022-07-29T03:07:57;100310.31;;;19.07;80.06
64521;BME280;50896;46.714;17.322;2022-07-29T03:10:29;100304.19;;;19.00;80.75
64521;BME280;50896;46.714;17.322;2022-07-29T03:13:04;100311.81;;;19.03;80.53
64521;BME280;50896;46.714;17.322;2022-07-29T03:15:32;100306.28;;;18.98;80.95
64521;BME280;50896;46.714;17.322;2022-07-29T03:18:02;100311.81;;;19.03;81.38
64521;BME280;50896;46.714;17.322;2022-07-29T03:20:29;100311.81;;;19.03;81.79
64521;BME280;50896;46.714;17.322;2022-07-29T03:22:58;100316.38;;;19.03;81.73
64521;BME280;50896;46.714;17.322;2022-07-29T03:25:30;100317.81;;;19.05;81.32
64521;BME280;50896;46.714;17.322;2022-07-29T03:27:58;100317.66;;;19.00;80.87
64521;BME280;50896;46.714;17.322;2022-07-29T03:30:25;100314.94;;;19.00;81.04
64521;BME280;50896;46.714;17.322;2022-07-29T03:32:58;100314.50;;;19.03;81.12
64521;BME280;50896;46.714;17.322;2022-07-29T03:35:26;100319.75;;;18.98;81.49
64521;BME280;50896;46.714;17.322;2022-07-29T03:37:55;100307.59;;;18.89;81.83
64521;BME280;50896;46.714;17.322;2022-07-29T03:43:08;100315.22;;;18.92;81.89
64521;BME280;50896;46.714;17.322;2022-07-29T03:45:37;100322.28;;;18.93;81.84
64521;BME280;50896;46.714;17.322;2022-07-29T03:48:10;100322.72;;;18.90;82.18
64521;BME280;50896;46.714;17.322;2022-07-29T03:50:40;100316.91;;;18.86;81.82
64521;BME280;50896;46.714;17.322;2022-07-29T03:53:10;100314.47;;;18.78;81.95
64521;BME280;50896;46.714;17.322;2022-07-29T03:55:43;100316.56;;;18.76;82.67
64521;BME280;50896;46.714;17.322;2022-07-29T03:58:14;100307.47;;;18.77;83.03
64521;BME280;50896;46.714;17.322;2022-07-29T04:00:44;100317.97;;;18.85;83.69
64521;BME280;50896;46.714;17.322;2022-07-29T04:03:21;100319.41;;;18.88;84.05
64521;BME280;50896;46.714;17.322;2022-07-29T04:06:00;100317.75;;;18.87;84.42
64521;BME280;50896;46.714;17.322;2022-07-29T04:08:28;100323.25;;;18.99;84.81
64521;BME280;50896;46.714;17.322;2022-07-29T04:11:01;100329.00;;;19.09;84.08
64521;BME280;50896;46.714;17.322;2022-07-29T04:13:32;100328.53;;;19.12;84.54
64521;BME280;50896;46.714;17.322;2022-07-29T04:16:04;100328.25;;;19.20;85.04
64521;BME280;50896;46.714;17.322;2022-07-29T04:18:40;100329.25;;;19.44;85.04
64521;BME280;50896;46.714;17.322;2022-07-29T04:21:10;100330.41;;;19.74;83.44
64521;BME280;50896;46.714;17.322;2022-07-29T04:23:49;100326.88;;;20.10;81.76
64521;BME280;50896;46.714;17.322;2022-07-29T04:26:23;100331.47;;;20.40;80.63
64521;BME280;50896;46.714;17.322;2022-07-29T04:28:52;100328.84;;;20.64;80.86
64521;BME280;50896;46.714;17.322;2022-07-29T04:31:20;100329.38;;;20.85;80.82
64521;BME280;50896;46.714;17.322;2022-07-29T04:33:53;100330.91;;;21.04;81.94
64521;BME280;50896;46.714;17.322;2022-07-29T04:36:22;100320.69;;;21.18;81.75
64521;BME280;50896;46.714;17.322;2022-07-29T04:38:59;100332.00;;;21.27;80.36
64521;BME280;50896;46.714;17.322;2022-07-29T04:41:41;100333.19;;;21.31;80.37
64521;BME280;50896;46.714;17.322;2022-07-29T04:44:11;100324.59;;;21.34;80.75
64521;BME280;50896;46.714;17.322;2022-07-29T04:46:44;100328.34;;;21.45;80.68
64521;BME280;50896;46.714;17.322;2022-07-29T04:49:15;100331.19;;;21.62;80.50
64521;BME280;50896;46.714;17.322;2022-07-29T04:51:42;100332.56;;;21.76;80.45
64521;BME280;50896;46.714;17.322;2022-07-29T04:54:13;100335.59;;;21.92;80.05
64521;BME280;50896;46.714;17.322;2022-07-29T04:56:44;100333.41;;;22.06;79.97
64521;BME280;50896;46.714;17.322;2022-07-29T04:59:29;100335.38;;;22.22;78.95
64521;BME280;50896;46.714;17.322;2022-07-29T05:02:24;100323.44;;;22.35;77.84
64521;BME280;50896;46.714;17.322;2022-07-29T05:04:55;100341.53;;;22.46;76.40
64521;BME280;50896;46.714;17.322;2022-07-29T05:07:29;100342.53;;;22.57;75.46
64521;BME280;50896;46.714;17.322;2022-07-29T05:09:57;100341.66;;;22.68;75.13
64521;BME280;50896;46.714;17.322;2022-07-29T05:12:25;100341.25;;;22.77;75.08
64521;BME280;50896;46.714;17.322;2022-07-29T05:14:56;100346.34;;;22.90;74.93
64521;BME280;50896;46.714;17.322;2022-07-29T05:17:32;100345.59;;;22.95;75.42
64521;BME280;50896;46.714;17.322;2022-07-29T05:20:04;100347.00;;;22.97;75.43
64521;BME280;50896;46.714;17.322;2022-07-29T05:22:38;100345.03;;;23.10;75.66
64521;BME280;50896;46.714;17.322;2022-07-29T05:25:09;100352.94;;;23.11;76.06
64521;BME280;50896;46.714;17.322;2022-07-29T05:27:45;100349.75;;;23.14;75.98
64521;BME280;50896;46.714;17.322;2022-07-29T05:30:18;100347.03;;;23.14;75.86
64521;BME280;50896;46.714;17.322;2022-07-29T05:32:58;100351.78;;;23.24;75.55
64521;BME280;50896;46.714;17.322;2022-07-29T05:35:28;100358.53;;;23.21;74.50
64521;BME280;50896;46.714;17.322;2022-07-29T05:37:56;100362.47;;;23.31;74.69
64521;BME280;50896;46.714;17.322;2022-07-29T05:40:27;100361.53;;;23.42;72.82
64521;BME280;50896;46.714;17.322;2022-07-29T05:43:01;100364.34;;;23.47;71.02
64521;BME280;50896;46.714;17.322;2022-07-29T05:46:14;100368.84;;;23.59;69.58
64521;BME280;50896;46.714;17.322;2022-07-29T05:48:46;100374.00;;;23.60;68.62
64521;BME280;50896;46.714;17.322;2022-07-29T05:51:14;100368.88;;;23.64;68.26
64521;BME280;50896;46.714;17.322;2022-07-29T05:53:41;100363.38;;;23.76;68.57
64521;BME280;50896;46.714;17.322;2022-07-29T05:56:14;100374.59;;;23.84;68.24
64521;BME280;50896;46.714;17.322;2022-07-29T05:58:52;100367.94;;;23.92;68.31
64521;BME280;50896;46.714;17.322;2022-07-29T06:01:20;100364.72;;;23.95;68.62
64521;BME280;50896;46.714;17.322;2022-07-29T06:03:47;100364.22;;;23.98;69.20
64521;BME280;50896;46.714;17.322;2022-07-29T06:06:17;100360.81;;;24.08;67.70
64521;BME280;50896;46.714;17.322;2022-07-29T06:08:47;100362.97;;;24.06;66.40
64521;BME280;50896;46.714;17.322;2022-07-29T06:11:16;100364.22;;;24.20;65.78
64521;BME280;50896;46.714;17.322;2022-07-29T06:13:45;100355.34;;;24.30;64.91
64521;BME280;50896;46.714;17.322;2022-07-29T06:16:21;100366.84;;;24.37;61.25
64521;BME280;50896;46.714;17.322;2022-07-29T06:19:00;100364.97;;;24.38;60.55
64521;BME280;50896;46.714;17.322;2022-07-29T06:21:32;100369.88;;;24.41;60.17
64521;BME280;50896;46.714;17.322;2022-07-29T06:24:12;100369.16;;;24.51;60.41
64521;BME280;50896;46.714;17.322;2022-07-29T06:26:47;100364.00;;;24.54;61.29
64521;BME280;50896;46.714;17.322;2022-07-29T06:29:21;100373.91;;;24.61;60.13
64521;BME280;50896;46.714;17.322;2022-07-29T06:31:55;100367.13;;;24.63;58.92
64521;BME280;50896;46.714;17.322;2022-07-29T06:34:27;100366.09;;;24.69;58.72
64521;BME280;50896;46.714;17.322;2022-07-29T06:37:00;100362.00;;;24.67;58.45
64521;BME280;50896;46.714;17.322;2022-07-29T06:39:45;100370.81;;;24.79;58.89
64521;BME280;50896;46.714;17.322;2022-07-29T06:42:37;100366.75;;;24.82;58.24
64521;BME280;50896;46.714;17.322;2022-07-29T06:45:12;100364.84;;;24.82;58.11
64521;BME280;50896;46.714;17.322;2022-07-29T06:47:58;100368.75;;;24.91;57.53
64521;BME280;50896;46.714;17.322;2022-07-29T06:50:58;100372.63;;;25.01;58.25
64521;BME280;50896;46.714;17.322;2022-07-29T06:53:26;100366.63;;;24.99;57.77
64521;BME280;50896;46.714;17.322;2022-07-29T06:55:54;100371.00;;;25.00;58.31
64521;BME280;50896;46.714;17.322;2022-07-29T06:58:28;100374.81;;;25.04;57.97
64521;BME280;50896;46.714;17.322;2022-07-29T07:01:02;100377.53;;;25.04;58.97
64521;BME280;50896;46.714;17.322;2022-07-29T07:03:31;100365.94;;;25.14;58.24
64521;BME280;50896;46.714;17.322;2022-07-29T07:05:59;100366.22;;;25.17;57.68
64521;BME280;50896;46.714;17.322;2022-07-29T07:08:27;100364.59;;;25.16;57.79
64521;BME280;50896;46.714;17.322;2022-07-29T07:10:56;100363.50;;;25.17;57.94
64521;BME280;50896;46.714;17.322;2022-07-29T07:13:27;100361.94;;;25.27;57.41
64521;BME280;50896;46.714;17.322;2022-07-29T07:16:04;100363.66;;;25.33;57.28
64521;BME280;50896;46.714;17.322;2022-07-29T07:18:31;100361.97;;;25.32;56.95
64521;BME280;50896;46.714;17.322;2022-07-29T07:21:00;100359.31;;;25.37;56.41
64521;BME280;50896;46.714;17.322;2022-07-29T07:23:28;100355.53;;;25.43;57.25
64521;BME280;50896;46.714;17.322;2022-07-29T07:25:55;100356.03;;;25.35;57.78
64521;BME280;50896;46.714;17.322;2022-07-29T07:28:23;100355.75;;;25.36;57.64
64521;BME280;50896;46.714;17.322;2022-07-29T07:30:56;100355.22;;;25.34;58.26
64521;BME280;50896;46.714;17.322;2022-07-29T07:33:26;100365.56;;;25.37;58.34
64521;BME280;50896;46.714;17.322;2022-07-29T07:36:03;100366.47;;;25.48;58.51
64521;BME280;50896;46.714;17.322;2022-07-29T07:38:37;100360.19;;;25.42;58.90
64521;BME280;50896;46.714;17.322;2022-07-29T07:41:27;100369.19;;;25.48;59.18
64521;BME280;50896;46.714;17.322;2022-07-29T07:44:10;100358.31;;;25.53;59.60
64521;BME280;50896;46.714;17.322;2022-07-29T07:46:42;100360.81;;;25.60;59.22
64521;BME280;50896;46.714;17.322;2022-07-29T07:49:18;100356.22;;;25.66;58.98
64521;BME280;50896;46.714;17.322;2022-07-29T07:51:49;100358.38;;;25.69;59.17
64521;BME280;50896;46.714;17.322;2022-07-29T07:54:16;100361.13;;;25.69;59.25
64521;BME280;50896;46.714;17.322;2022-07-29T07:56:47;100370.97;;;25.75;59.74
64521;BME280;50896;46.714;17.322;2022-07-29T07:59:21;100374.75;;;25.74;58.90
64521;BME280;50896;46.714;17.322;2022-07-29T08:01:49;100376.41;;;25.75;59.35
64521;BME280;50896;46.714;17.322;2022-07-29T08:04:22;100373.38;;;25.71;57.26
64521;BME280;50896;46.714;17.322;2022-07-29T08:06:56;100368.19;;;25.70;58.67
64521;BME280;50896;46.714;17.322;2022-07-29T08:09:24;100370.16;;;25.80;58.49
64521;BME280;50896;46.714;17.322;2022-07-29T08:11:57;100378.09;;;25.86;57.66
64521;BME280;50896;46.714;17.322;2022-07-29T08:14:30;100370.19;;;25.85;58.22
64521;BME280;50896;46.714;17.322;2022-07-29T08:16:59;100377.28;;;25.91;58.54
64521;BME280;50896;46.714;17.322;2022-07-29T08:19:31;100378.69;;;25.99;58.46
64521;BME280;50896;46.714;17.322;2022-07-29T08:21:58;100383.38;;;26.03;57.36
64521;BME280;50896;46.714;17.322;2022-07-29T08:24:27;100378.78;;;26.14;58.13
64521;BME280;50896;46.714;17.322;2022-07-29T08:27:10;100370.56;;;26.09;57.28
64521;BME280;50896;46.714;17.322;2022-07-29T08:29:58;100377.44;;;26.17;58.43
64521;BME280;50896;46.714;17.322;2022-07-29T08:33:10;100378.25;;;26.22;58.56
64521;BME280;50896;46.714;17.322;2022-07-29T08:35:40;100378.81;;;26.30;58.38
64521;BME280;50896;46.714;17.322;2022-07-29T08:38:11;100380.47;;;26.36;57.40
64521;BME280;50896;46.714;17.322;2022-07-29T08:40:41;100385.09;;;26.35;57.34
64521;BME280;50896;46.714;17.322;2022-07-29T08:43:11;100387.28;;;26.38;57.78
64521;BME280;50896;46.714;17.322;2022-07-29T08:46:00;100392.50;;;26.45;58.02
64521;BME280;50896;46.714;17.322;2022-07-29T08:48:27;100384.03;;;26.47;57.74
64521;BME280;50896;46.714;17.322;2022-07-29T08:50:59;100377.22;;;26.39;58.36
64521;BME280;50896;46.714;17.322;2022-07-29T08:53:29;100378.56;;;26.31;58.15
64521;BME280;50896;46.714;17.322;2022-07-29T08:55:59;100369.56;;;26.36;57.39
64521;BME280;50896;46.714;17.322;2022-07-29T08:58:31;100375.59;;;26.43;57.61
64521;BME280;50896;46.714;17.322;2022-07-29T09:01:04;100368.50;;;26.42;56.71
64521;BME280;50896;46.714;17.322;2022-07-29T09:03:36;100358.16;;;26.49;58.04
64521;BME280;50896;46.714;17.322;2022-07-29T09:06:04;100360.59;;;26.51;57.49
64521;BME280;50896;46.714;17.322;2022-07-29T09:08:32;100360.38;;;26.63;57.18
64521;BME280;50896;46.714;17.322;2022-07-29T09:11:01;100364.97;;;26.62;58.34
64521;BME280;50896;46.714;17.322;2022-07-29T09:13:35;100357.94;;;26.71;55.81
64521;BME280;50896;46.714;17.322;2022-07-29T09:16:04;100352.50;;;26.76;55.10
64521;BME280;50896;46.714;17.322;2022-07-29T09:18:41;100363.66;;;26.80;56.70
64521;BME280;50896;46.714;17.322;2022-07-29T09:21:20;100350.59;;;26.82;57.31
64521;BME280;50896;46.714;17.322;2022-07-29T09:24:14;100352.50;;;26.76;57.82
64521;BME280;50896;46.714;17.322;2022-07-29T09:26:49;100357.13;;;26.86;57.71
64521;BME280;50896;46.714;17.322;2022-07-29T09:29:23;100349.75;;;26.87;57.22
64521;BME280;50896;46.714;17.322;2022-07-29T09:31:54;100350.06;;;26.90;57.90
64521;BME280;50896;46.714;17.322;2022-07-29T09:34:27;100342.41;;;26.92;57.62
64521;BME280;50896;46.714;17.322;2022-07-29T09:36:59;100350.03;;;27.01;57.76
64521;BME280;50896;46.714;17.322;2022-07-29T09:39:35;100347.03;;;27.07;58.85
64521;BME280;50896;46.714;17.322;2022-07-29T09:42:07;100336.38;;;27.16;58.62
64521;BME280;50896;46.714;17.322;2022-07-29T09:44:49;100339.38;;;27.09;58.76
64521;BME280;50896;46.714;17.322;2022-07-29T09:47:18;100332.28;;;27.08;58.14
64521;BME280;50896;46.714;17.322;2022-07-29T09:49:52;100336.38;;;27.16;58.32
64521;BME280;50896;46.714;17.322;2022-07-29T09:52:21;100341.00;;;27.21;58.57
64521;BME280;50896;46.714;17.322;2022-07-29T09:54:49;100329.84;;;27.17;55.97
64521;BME280;50896;46.714;17.322;2022-07-29T09:57:25;100326.53;;;27.36;56.96
64521;BME280;50896;46.714;17.322;2022-07-29T10:00:09;100331.44;;;27.39;57.88
64521;BME280;50896;46.714;17.322;2022-07-29T10:02:51;100327.06;;;27.48;58.18
64521;BME280;50896;46.714;17.322;2022-07-29T10:05:26;100325.41;;;27.57;55.19
64521;BME280;50896;46.714;17.322;2022-07-29T10:08:02;100327.84;;;27.59;52.88
64521;BME280;50896;46.714;17.322;2022-07-29T10:10:33;100319.34;;;27.66;50.39
64521;BME280;50896;46.714;17.322;2022-07-29T10:13:15;100316.88;;;27.74;50.08
64521;BME280;50896;46.714;17.322;2022-07-29T10:16:02;100316.81;;;27.79;49.54
64521;BME280;50896;46.714;17.322;2022-07-29T10:18:30;100320.91;;;27.87;48.34
64521;BME280;50896;46.714;17.322;2022-07-29T10:21:05;100314.56;;;27.97;48.81
64521;BME280;50896;46.714;17.322;2022-07-29T10:23:34;100310.22;;;28.01;53.77
64521;BME280;50896;46.714;17.322;2022-07-29T10:26:12;100305.25;;;28.08;49.07
64521;BME280;50896;46.714;17.322;2022-07-29T10:28:39;100306.31;;;28.12;49.30
64521;BME280;50896;46.714;17.322;2022-07-29T10:31:13;100303.50;;;28.23;48.64
64521;BME280;50896;46.714;17.322;2022-07-29T10:34:02;100295.00;;;28.29;46.84
64521;BME280;50896;46.714;17.322;2022-07-29T10:40:15;100296.22;;;28.53;45.88
64521;BME280;50896;46.714;17.322;2022-07-29T10:43:27;100293.22;;;28.49;50.13
64521;BME280;50896;46.714;17.322;2022-07-29T10:46:03;100289.00;;;28.27;51.44
64521;BME280;50896;46.714;17.322;2022-07-29T10:52:02;100284.22;;;27.99;47.89
64521;BME280;50896;46.714;17.322;2022-07-29T10:57:12;100284.47;;;28.12;50.45
64521;BME280;50896;46.714;17.322;2022-07-29T11:00:30;100281.00;;;28.36;54.13
64521;BME280;50896;46.714;17.322;2022-07-29T11:03:08;100285.69;;;28.30;56.57
64521;BME280;50896;46.714;17.322;2022-07-29T11:05:54;100285.69;;;28.36;57.52
64521;BME280;50896;46.714;17.322;2022-07-29T11:08:29;100290.09;;;28.26;54.49
64521;BME280;50896;46.714;17.322;2022-07-29T11:14:00;100284.16;;;28.19;52.99
64521;BME280;50896;46.714;17.322;2022-07-29T11:17:01;100282.06;;;28.45;49.47
64521;BME280;50896;46.714;17.322;2022-07-29T11:19:34;100266.34;;;28.56;46.27
64521;BME280;50896;46.714;17.322;2022-07-29T11:22:36;100266.66;;;28.89;44.62
64521;BME280;50896;46.714;17.322;2022-07-29T11:25:16;100259.88;;;29.11;44.50
64521;BME280;50896;46.714;17.322;2022-07-29T11:28:15;100255.00;;;29.32;43.49
64521;BME280;50896;46.714;17.322;2022-07-29T11:31:04;100256.81;;;29.42;40.00
64521;BME280;50896;46.714;17.322;2022-07-29T11:33:39;100257.06;;;29.64;39.60
64521;BME280;50896;46.714;17.322;2022-07-29T11:36:22;100249.63;;;29.89;38.75
64521;BME280;50896;46.714;17.322;2022-07-29T11:39:26;100248.19;;;29.73;39.26
64521;BME280;50896;46.714;17.322;2022-07-29T11:45:02;100245.91;;;30.18;41.15
64521;BME280;50896;46.714;17.322;2022-07-29T11:47:54;100248.69;;;30.32;36.97
64521;BME280;50896;46.714;17.322;2022-07-29T11:50:47;100238.84;;;30.50;37.13
64521;BME280;50896;46.714;17.322;2022-07-29T11:53:14;100245.25;;;30.59;37.29
64521;BME280;50896;46.714;17.322;2022-07-29T11:56:10;100241.63;;;30.78;36.12
64521;BME280;50896;46.714;17.322;2022-07-29T11:59:01;100245.41;;;30.96;37.22
64521;BME280;50896;46.714;17.322;2022-07-29T12:01:51;100241.78;;;31.14;37.28
64521;BME280;50896;46.714;17.322;2022-07-29T12:04:53;100239.97;;;31.10;37.36
64521;BME280;50896;46.714;17.322;2022-07-29T12:07:35;100235.47;;;31.00;36.81
64521;BME280;50896;46.714;17.322;2022-07-29T12:10:09;100228.66;;;30.97;37.99
64521;BME280;50896;46.714;17.322;2022-07-29T12:12:56;100230.50;;;31.02;39.74
64521;BME280;50896;46.714;17.322;2022-07-29T12:15:32;100235.47;;;31.00;41.25
64521;BME280;50896;46.714;17.322;2022-07-29T12:18:36;100234.97;;;31.12;42.14
64521;BME280;50896;46.714;17.322;2022-07-29T12:21:03;100232.03;;;31.08;40.35
64521;BME280;50896;46.714;17.322;2022-07-29T12:23:52;100230.28;;;30.98;41.13
64521;BME280;50896;46.714;17.322;2022-07-29T12:26:34;100222.84;;;30.85;38.70
64521;BME280;50896;46.714;17.322;2022-07-29T12:29:04;100215.84;;;30.79;39.05
64521;BME280;50896;46.714;17.322;2022-07-29T12:31:43;100212.28;;;30.64;38.83
64521;BME280;50896;46.714;17.322;2022-07-29T12:34:13;100206.66;;;30.56;35.91
64521;BME280;50896;46.714;17.322;2022-07-29T12:36:51;100200.25;;;30.46;34.53
64521;BME280;50896;46.714;17.322;2022-07-29T12:39:22;100205.13;;;30.49;34.89
64521;BME280;50896;46.714;17.322;2022-07-29T12:42:10;100198.72;;;30.54;37.82
64521;BME280;50896;46.714;17.322;2022-07-29T12:44:53;100193.75;;;30.56;37.06
64521;BME280;50896;46.714;17.322;2022-07-29T12:47:52;100193.44;;;30.44;41.86
64521;BME280;50896;46.714;17.322;2022-07-29T12:50:20;100189.41;;;30.36;40.43
64521;BME280;50896;46.714;17.322;2022-07-29T12:52:52;100184.91;;;30.26;39.53
64521;BME280;50896;46.714;17.322;2022-07-29T12:55:38;100173.44;;;30.24;42.23
64521;BME280;50896;46.714;17.322;2022-07-29T12:58:25;100172.75;;;30.32;39.01
64521;BME280;50896;46.714;17.322;2022-07-29T13:03:56;100161.56;;;30.29;35.75
64521;BME280;50896;46.714;17.322;2022-07-29T13:07:06;100160.06;;;30.37;37.06
64521;BME280;50896;46.714;17.322;2022-07-29T13:10:39;100158.94;;;30.38;37.55
64521;BME280;50896;46.714;17.322;2022-07-29T13:13:25;100153.91;;;30.45;36.89
64521;BME280;50896;46.714;17.322;2022-07-29T13:16:09;100154.88;;;30.35;36.10
64521;BME280;50896;46.714;17.322;2022-07-29T13:19:10;100149.38;;;30.35;35.28
64521;BME280;50896;46.714;17.322;2022-07-29T13:21:38;100146.38;;;30.37;35.01
64521;BME280;50896;46.714;17.322;2022-07-29T13:24:26;100144.31;;;30.28;35.33
64521;BME280;50896;46.714;17.322;2022-07-29T13:27:16;100146.44;;;30.31;37.75
64521;BME280;50896;46.714;17.322;2022-07-29T13:29:46;100145.84;;;30.34;38.35
64521;BME280;50896;46.714;17.322;2022-07-29T13:32:38;100145.22;;;30.38;37.56
64521;BME280;50896;46.714;17.322;2022-07-29T13:35:17;100143.63;;;30.37;36.38
64521;BME280;50896;46.714;17.322;2022-07-29T13:38:09;100143.09;;;30.34;37.62
64521;BME280;50896;46.714;17.322;2022-07-29T13:40:44;100145.34;;;30.32;39.01
64521;BME280;50896;46.714;17.322;2022-07-29T13:43:40;100145.53;;;30.36;40.23
64521;BME280;50896;46.714;17.322;2022-07-29T13:46:16;100147.16;;;30.37;38.30
64521;BME280;50896;46.714;17.322;2022-07-29T13:48:48;100139.66;;;30.43;38.34
64521;BME280;50896;46.714;17.322;2022-07-29T13:51:23;100140.19;;;30.45;38.18
64521;BME280;50896;46.714;17.322;2022-07-29T13:54:04;100144.06;;;30.44;35.92
64521;BME280;50896;46.714;17.322;2022-07-29T13:56:36;100137.84;;;30.38;34.54
64521;BME280;50896;46.714;17.322;2022-07-29T13:59:18;100134.56;;;30.36;33.55
64521;BME280;50896;46.714;17.322;2022-07-29T14:01:59;100133.38;;;30.42;34.60